createdAt,value
2018-11-21T00:02:34.434Z,46.39
2018-11-21T00:05:22.523Z,45.92
2018-11-21T00:07:51.911Z,46.52
2018-11-21T00:10:41.742Z,47.03
2018-11-21T00:13:23.144Z,46.21
2018-11-21T00:16:13.806Z,46.69
2018-11-21T00:18:43.366Z,46.69
2018-11-21T00:21:12.407Z,46.61
2018-11-21T00:23:41.463Z,46.84
2018-11-21T00:26:10.763Z,46.72
2018-11-21T00:28:58.765Z,46.90
2018-11-21T00:31:39.697Z,47.31
2018-11-21T00:34:28.148Z,47.03
2018-11-21T00:37:16.607Z,47.52
2018-11-21T00:40:04.783Z,47.06
2018-11-21T00:42:53.133Z,47.16
2018-11-21T00:45:22.190Z,47.77
2018-11-21T00:48:10.133Z,47.38
2018-11-21T00:50:58.094Z,46.80
2018-11-21T00:53:27.226Z,47.19
2018-11-21T00:56:15.493Z,47.36
2018-11-21T00:58:44.636Z,46.81
2018-11-21T01:01:32.932Z,47.77
2018-11-21T01:04:02.070Z,47.03
2018-11-21T01:06:31.170Z,47.66
2018-11-21T01:09:19.373Z,47.79
2018-11-21T01:12:07.780Z,46.97
2018-11-21T01:14:56.167Z,47.04
2018-11-21T01:17:25.201Z,47.81
2018-11-21T01:19:54.271Z,47.84
2018-11-21T01:22:23.330Z,47.68
2018-11-21T01:25:11.329Z,48.04
2018-11-21T01:27:40.305Z,47.72
2018-11-21T01:30:28.779Z,48.24
2018-11-21T01:33:09.697Z,48.15
2018-11-21T01:35:38.638Z,47.70
2018-11-21T01:38:07.742Z,47.58
2018-11-21T01:40:36.772Z,47.08
2018-11-21T01:43:06.213Z,48.03
2018-11-21T01:45:35.378Z,47.49
2018-11-21T01:48:04.524Z,47.65
2018-11-21T01:50:33.570Z,46.91
2018-11-21T01:53:21.794Z,48.07
2018-11-21T01:56:10.102Z,47.92
2018-11-21T01:58:51.180Z,47.98
2018-11-21T02:01:20.256Z,47.90
2018-11-21T02:04:09.662Z,47.89
2018-11-21T02:06:58.006Z,47.86
2018-11-21T02:09:27.076Z,47.58
2018-11-21T02:11:56.153Z,47.32
2018-11-21T02:14:44.479Z,47.19
2018-11-21T02:17:32.754Z,47.00
2018-11-21T02:20:01.900Z,47.76
2018-11-21T02:22:30.994Z,47.97
2018-11-21T02:25:00.003Z,46.97
2018-11-21T02:27:48.256Z,47.55
2018-11-21T02:30:20.041Z,47.49
2018-11-21T02:33:08.289Z,48.04
2018-11-21T02:35:56.612Z,48.11
2018-11-21T02:38:37.881Z,48.20
2018-11-21T02:41:07.034Z,47.47
2018-11-21T02:43:36.706Z,47.57
2018-11-21T02:46:06.357Z,47.53
2018-11-21T02:48:56.506Z,46.50
2018-11-21T02:51:25.582Z,47.76
2018-11-21T02:54:13.971Z,47.89
2018-11-21T02:57:22.917Z,48.24
2018-11-21T02:59:57.256Z,48.11
2018-11-21T03:02:45.214Z,47.75
2018-11-21T03:05:33.992Z,47.82
2018-11-21T03:08:03.126Z,48.15
2018-11-21T03:13:28.880Z,47.33
2018-11-21T03:15:57.956Z,47.29
2018-11-21T03:18:27.051Z,47.72
2018-11-21T03:20:56.787Z,47.94
2018-11-21T03:23:25.823Z,47.47
2018-11-21T03:26:14.083Z,47.39
2018-11-21T03:31:23.757Z,46.90
2018-11-21T03:34:12.100Z,47.81
2018-11-21T03:36:48.260Z,46.67
2018-11-21T03:39:36.579Z,47.88
2018-11-21T03:42:06.389Z,48.07
2018-11-21T03:44:54.346Z,47.27
2018-11-21T03:47:23.580Z,46.77
2018-11-21T03:49:52.911Z,46.74
2018-11-21T03:52:41.160Z,46.93
2018-11-21T03:55:29.587Z,46.51
2018-11-21T03:57:59.016Z,46.90
2018-11-21T04:00:28.094Z,46.85
2018-11-21T04:02:57.402Z,46.52
2018-11-21T04:05:45.662Z,47.07
2018-11-21T04:08:14.851Z,47.30
2018-11-21T04:10:43.937Z,47.98
2018-11-21T04:13:32.247Z,46.30
2018-11-21T04:16:01.551Z,47.22
2018-11-21T04:18:53.801Z,47.98
2018-11-21T04:21:22.926Z,48.32
2018-11-21T04:24:10.847Z,47.58
2018-11-21T04:26:39.987Z,47.75
2018-11-21T04:29:28.042Z,47.72
2018-11-21T04:31:57.247Z,48.07
2018-11-21T04:34:26.233Z,47.39
2018-11-21T04:37:14.605Z,47.29
2018-11-21T04:39:43.657Z,47.40
2018-11-21T04:42:31.787Z,47.62
2018-11-21T04:45:20.118Z,47.42
2018-11-21T04:47:49.391Z,47.09
2018-11-21T04:50:18.553Z,47.13
2018-11-21T04:53:07.548Z,48.39
2018-11-21T04:55:36.934Z,48.61
2018-11-21T04:58:06.453Z,48.08
2018-11-21T05:00:35.542Z,47.79
2018-11-21T05:03:23.806Z,47.68
2018-11-21T05:06:14.228Z,47.90
2018-11-21T05:08:45.893Z,47.85
2018-11-21T05:11:34.209Z,47.09
2018-11-21T05:14:22.728Z,46.34
2018-11-21T05:16:52.101Z,46.22
2018-11-21T05:19:21.215Z,46.77
2018-11-21T05:24:14.856Z,47.65
2018-11-21T05:27:03.258Z,48.12
2018-11-21T05:29:51.646Z,47.85
2018-11-21T05:32:20.785Z,48.32
2018-11-21T05:34:49.890Z,48.07
2018-11-21T05:37:38.330Z,48.36
2018-11-21T05:40:28.839Z,48.87
2018-11-21T05:42:58.042Z,49.04
2018-11-21T05:45:46.444Z,49.04
2018-11-21T05:48:34.935Z,48.77
2018-11-21T05:51:04.096Z,49.19
2018-11-21T05:53:36.330Z,49.51
2018-11-21T05:56:05.805Z,49.16
2018-11-21T05:58:54.526Z,48.84
2018-11-21T06:04:18.263Z,48.53
2018-11-21T06:06:47.362Z,47.61
2018-11-21T06:09:16.426Z,48.38
2018-11-21T06:12:04.822Z,48.32
2018-11-21T06:14:53.198Z,48.81
2018-11-21T06:17:22.422Z,49.08
2018-11-21T06:20:10.417Z,48.35
2018-11-21T06:22:58.797Z,48.66
2018-11-21T06:25:46.787Z,48.13
2018-11-21T06:31:10.167Z,46.38
2018-11-21T06:33:58.647Z,48.01
2018-11-21T06:36:40.096Z,47.85
2018-11-21T06:39:09.329Z,47.96
2018-11-21T06:41:38.618Z,47.72
2018-11-21T06:44:07.808Z,47.37
2018-11-21T06:46:56.094Z,47.33
2018-11-21T06:49:25.308Z,46.54
2018-11-21T06:52:13.312Z,46.76
2018-11-21T06:55:01.823Z,47.46
2018-11-21T06:57:30.978Z,46.38
2018-11-21T07:00:00.292Z,46.30
2018-11-21T07:02:30.086Z,46.54
2018-11-21T07:04:59.464Z,46.11
2018-11-21T07:07:48.169Z,46.24
2018-11-21T07:10:36.676Z,46.91
2018-11-21T07:13:24.828Z,46.78
2018-11-21T07:16:13.094Z,45.71
2018-11-21T07:18:42.361Z,45.84
2018-11-21T07:21:11.462Z,46.18
2018-11-21T07:24:01.414Z,46.16
2018-11-21T07:26:49.871Z,46.14
2018-11-21T07:29:38.591Z,46.17
2018-11-21T07:32:26.696Z,45.94
2018-11-21T07:34:56.140Z,45.90
2018-11-21T07:37:25.250Z,46.01
2018-11-21T07:40:14.705Z,45.50
2018-11-21T07:43:03.084Z,45.45
2018-11-21T07:48:30.383Z,46.28
2018-11-21T07:51:02.453Z,46.01
2018-11-21T07:53:47.892Z,45.73
2018-11-21T07:56:55.503Z,45.03
2018-11-21T07:59:43.963Z,45.80
2018-11-21T08:02:16.704Z,44.83
2018-11-21T08:05:04.674Z,46.21
2018-11-21T08:08:12.004Z,46.46
2018-11-21T08:11:12.247Z,45.65
2018-11-21T08:13:58.639Z,45.65
2018-11-21T08:16:46.575Z,45.72
2018-11-21T08:19:34.554Z,45.06
2018-11-21T08:25:03.928Z,45.38
2018-11-21T08:27:51.953Z,45.72
2018-11-21T08:32:55.821Z,46.16
2018-11-21T08:35:44.364Z,46.06
2018-11-21T08:38:13.386Z,45.60
2018-11-21T08:41:01.698Z,45.71
2018-11-21T08:43:30.889Z,45.81
2018-11-21T08:46:00.005Z,44.82
2018-11-21T08:48:48.225Z,46.65
2018-11-21T08:51:17.385Z,46.30
2018-11-21T08:53:46.563Z,46.04
2018-11-21T08:56:15.725Z,48.05
2018-11-21T09:01:38.603Z,45.12
2018-11-21T09:04:07.881Z,44.88
2018-11-21T09:06:36.930Z,44.63
2018-11-21T09:09:27.232Z,45.55
2018-11-21T09:12:15.690Z,45.18
2018-11-21T09:15:05.077Z,45.01
2018-11-21T09:17:34.301Z,44.80
2018-11-21T09:20:22.290Z,44.74
2018-11-21T09:22:51.602Z,44.99
2018-11-21T09:25:39.944Z,44.90
2018-11-21T09:28:10.050Z,45.32
2018-11-21T09:30:41.081Z,44.92
2018-11-21T09:33:30.990Z,44.73
2018-11-21T09:35:58.866Z,45.29
2018-11-21T09:38:27.989Z,44.57
2018-11-21T09:41:16.255Z,44.41
2018-11-21T09:43:57.848Z,44.54
2018-11-21T09:46:27.799Z,44.39
2018-11-21T09:48:57.918Z,43.91
2018-11-21T09:51:27.217Z,44.25
2018-11-21T09:54:16.091Z,44.97
2018-11-21T09:56:45.310Z,44.84
2018-11-21T09:59:14.493Z,44.96
2018-11-21T10:02:23.213Z,44.12
2018-11-21T10:04:52.394Z,44.93
2018-11-21T10:07:21.552Z,44.40
2018-11-21T10:10:09.938Z,44.99
2018-11-21T10:12:39.088Z,45.30
2018-11-21T10:15:09.134Z,45.03
2018-11-21T10:17:38.404Z,45.42
2018-11-21T10:20:07.925Z,45.40
2018-11-21T10:22:36.948Z,45.26
2018-11-21T10:25:06.058Z,45.45
2018-11-21T10:27:35.218Z,44.99
2018-11-21T10:30:04.320Z,45.29
2018-11-21T10:32:33.508Z,45.55
2018-11-21T10:35:08.870Z,45.77
2018-11-21T10:37:32.013Z,45.23
2018-11-21T10:40:04.546Z,45.74
2018-11-21T10:42:33.674Z,45.90
2018-11-21T10:45:03.180Z,46.03
2018-11-21T10:47:32.685Z,45.53
2018-11-21T10:50:20.976Z,45.82
2018-11-21T10:53:09.488Z,45.77
2018-11-21T10:55:38.734Z,45.90
2018-11-21T10:58:26.715Z,45.83
2018-11-21T11:01:17.193Z,44.88
2018-11-21T11:03:51.703Z,45.52
2018-11-21T11:06:39.588Z,45.59
2018-11-21T11:09:46.933Z,44.95
2018-11-21T11:12:35.122Z,45.02
2018-11-21T11:15:42.375Z,45.43
2018-11-21T11:18:30.449Z,45.06
2018-11-21T11:21:21.748Z,45.35
2018-11-21T11:24:09.893Z,44.82
2018-11-21T11:27:17.198Z,44.79
2018-11-21T11:30:05.144Z,45.13
2018-11-21T11:32:53.150Z,44.36
2018-11-21T11:35:43.085Z,44.96
2018-11-21T11:38:31.153Z,45.35
2018-11-21T11:41:19.184Z,45.42
2018-11-21T11:44:22.807Z,45.57
2018-11-21T11:47:21.024Z,45.61
2018-11-21T11:50:09.043Z,45.69
2018-11-21T11:52:48.509Z,45.20
2018-11-21T11:55:36.753Z,45.30
2018-11-21T11:58:24.714Z,45.40
2018-11-21T12:01:31.990Z,45.45
2018-11-21T12:04:20.109Z,45.18
2018-11-21T12:07:27.425Z,45.25
2018-11-21T12:10:34.640Z,45.10
2018-11-21T12:13:22.946Z,45.02
2018-11-21T12:16:30.258Z,45.21
2018-11-21T12:19:18.362Z,45.30
2018-11-21T12:21:58.609Z,45.28
2018-11-21T12:24:46.490Z,44.75
2018-11-21T12:30:17.247Z,44.13
2018-11-21T12:33:03.811Z,44.09
2018-11-21T12:36:10.967Z,45.14
2018-11-21T12:39:01.590Z,44.47
2018-11-21T12:41:49.753Z,44.11
2018-11-21T12:44:37.743Z,44.59
2018-11-21T12:47:41.321Z,43.77
2018-11-21T12:50:34.861Z,44.14
2018-11-21T12:53:19.524Z,44.17
2018-11-21T12:56:07.563Z,43.76
2018-11-21T12:59:05.003Z,44.45
2018-11-21T13:01:52.967Z,45.21
2018-11-21T13:04:41.005Z,44.74
2018-11-21T13:07:29.085Z,44.46
2018-11-21T13:10:17.040Z,44.95
2018-11-21T13:13:05.062Z,44.81
2018-11-21T13:15:54.401Z,44.81
2018-11-21T13:18:42.351Z,44.65
2018-11-21T13:21:30.315Z,44.94
2018-11-21T13:24:18.417Z,44.47
2018-11-21T13:27:06.557Z,45.10
2018-11-21T13:29:54.625Z,44.56
2018-11-21T13:33:01.883Z,44.77
2018-11-21T13:35:50.060Z,44.12
2018-11-21T13:38:38.633Z,44.67
2018-11-21T13:41:26.407Z,44.31
2018-11-21T13:44:14.734Z,44.65
